sensor_id;sensor_type;location;lat;lon;timestamp;P1;durP1;ratioP1;P2;durP2;ratioP2
4547;SDS011;2286;51.570;7.090;2023-05-10T00:00:46;0.93;;;0.93;;
4547;SDS011;2286;51.570;7.090;2023-05-10T00:03:13;0.40;;;0.40;;
4547;SDS011;2286;51.570;7.090;2023-05-10T00:05:40;0.40;;;0.30;;
4547;SDS011;2286;51.570;7.090;2023-05-10T00:08:06;1.17;;;1.17;;
4547;SDS011;2286;51.570;7.090;2023-05-10T00:10:35;0.50;;;0.40;;
4547;SDS011;2286;51.570;7.090;2023-05-10T00:13:02;0.50;;;0.50;;
4547;SDS011;2286;51.570;7.090;2023-05-10T00:15:29;0.90;;;0.70;;
4547;SDS011;2286;51.570;7.090;2023-05-10T00:17:56;0.40;;;0.30;;
4547;SDS011;2286;51.570;7.090;2023-05-10T00:20:23;0.40;;;0.40;;
4547;SDS011;2286;51.570;7.090;2023-05-10T00:22:50;0.50;;;0.50;;
4547;SDS011;2286;51.570;7.090;2023-05-10T00:25:17;0.50;;;0.50;;
4547;SDS011;2286;51.570;7.090;2023-05-10T00:27:47;0.40;;;0.30;;
4547;SDS011;2286;51.570;7.090;2023-05-10T00:30:14;0.50;;;0.40;;
4547;SDS011;2286;51.570;7.090;2023-05-10T00:32:41;0.40;;;0.40;;
4547;SDS011;2286;51.570;7.090;2023-05-10T00:35:08;0.50;;;0.40;;
4547;SDS011;2286;51.570;7.090;2023-05-10T00:37:35;0.40;;;0.40;;
4547;SDS011;2286;51.570;7.090;2023-05-10T00:40:03;1.30;;;1.00;;
4547;SDS011;2286;51.570;7.090;2023-05-10T00:42:30;0.40;;;0.30;;
4547;SDS011;2286;51.570;7.090;2023-05-10T00:44:58;0.63;;;0.63;;
4547;SDS011;2286;51.570;7.090;2023-05-10T00:47:25;0.60;;;0.60;;
4547;SDS011;2286;51.570;7.090;2023-05-10T00:49:52;0.70;;;0.40;;
4547;SDS011;2286;51.570;7.090;2023-05-10T00:52:20;0.63;;;0.63;;
4547;SDS011;2286;51.570;7.090;2023-05-10T00:54:48;2.73;;;1.00;;
4547;SDS011;2286;51.570;7.090;2023-05-10T00:57:16;1.60;;;1.50;;
4547;SDS011;2286;51.570;7.090;2023-05-10T00:59:43;0.40;;;0.40;;
4547;SDS011;2286;51.570;7.090;2023-05-10T01:02:11;0.60;;;0.60;;
4547;SDS011;2286;51.570;7.090;2023-05-10T01:04:39;0.50;;;0.43;;
4547;SDS011;2286;51.570;7.090;2023-05-10T01:07:06;0.40;;;0.40;;
4547;SDS011;2286;51.570;7.090;2023-05-10T01:09:33;1.03;;;1.03;;
4547;SDS011;2286;51.570;7.090;2023-05-10T01:12:00;0.80;;;0.80;;
4547;SDS011;2286;51.570;7.090;2023-05-10T01:14:28;0.50;;;0.50;;
4547;SDS011;2286;51.570;7.090;2023-05-10T01:16:56;0.77;;;0.77;;
4547;SDS011;2286;51.570;7.090;2023-05-10T01:19:24;0.40;;;0.30;;
4547;SDS011;2286;51.570;7.090;2023-05-10T01:21:55;0.40;;;0.40;;
4547;SDS011;2286;51.570;7.090;2023-05-10T01:24:47;0.60;;;0.60;;
4547;SDS011;2286;51.570;7.090;2023-05-10T01:27:42;0.40;;;0.40;;
4547;SDS011;2286;51.570;7.090;2023-05-10T01:30:35;0.40;;;0.30;;
4547;SDS011;2286;51.570;7.090;2023-05-10T01:33:31;0.93;;;0.93;;
4547;SDS011;2286;51.570;7.090;2023-05-10T01:36:03;0.40;;;0.30;;
4547;SDS011;2286;51.570;7.090;2023-05-10T01:38:37;0.83;;;0.77;;
4547;SDS011;2286;51.570;7.090;2023-05-10T01:41:12;0.40;;;0.30;;
4547;SDS011;2286;51.570;7.090;2023-05-10T01:43:43;0.73;;;0.73;;
4547;SDS011;2286;51.570;7.090;2023-05-10T01:46:20;0.87;;;0.87;;
4547;SDS011;2286;51.570;7.090;2023-05-10T01:48:55;0.50;;;0.50;;
4547;SDS011;2286;51.570;7.090;2023-05-10T01:51:25;1.17;;;1.17;;
4547;SDS011;2286;51.570;7.090;2023-05-10T01:53:57;0.40;;;0.40;;
4547;SDS011;2286;51.570;7.090;2023-05-10T01:56:28;0.40;;;0.40;;
4547;SDS011;2286;51.570;7.090;2023-05-10T01:58:58;0.53;;;0.53;;
4547;SDS011;2286;51.570;7.090;2023-05-10T02:01:26;0.43;;;0.43;;
4547;SDS011;2286;51.570;7.090;2023-05-10T02:03:54;0.73;;;0.73;;
4547;SDS011;2286;51.570;7.090;2023-05-10T02:06:23;0.40;;;0.30;;
4547;SDS011;2286;51.570;7.090;2023-05-10T02:08:51;0.40;;;0.30;;
4547;SDS011;2286;51.570;7.090;2023-05-10T02:11:19;0.40;;;0.30;;
4547;SDS011;2286;51.570;7.090;2023-05-10T02:13:48;0.40;;;0.30;;
4547;SDS011;2286;51.570;7.090;2023-05-10T02:16:16;0.50;;;0.50;;
4547;SDS011;2286;51.570;7.090;2023-05-10T02:18:47;0.40;;;0.40;;
4547;SDS011;2286;51.570;7.090;2023-05-10T02:21:17;2.30;;;2.10;;
4547;SDS011;2286;51.570;7.090;2023-05-10T02:23:45;0.40;;;0.40;;
4547;SDS011;2286;51.570;7.090;2023-05-10T02:26:14;0.90;;;0.90;;
4547;SDS011;2286;51.570;7.090;2023-05-10T02:28:43;1.00;;;0.77;;
4547;SDS011;2286;51.570;7.090;2023-05-10T02:31:10;1.60;;;1.27;;
4547;SDS011;2286;51.570;7.090;2023-05-10T02:33:38;1.07;;;1.07;;
4547;SDS011;2286;51.570;7.090;2023-05-10T02:36:07;0.40;;;0.40;;
4547;SDS011;2286;51.570;7.090;2023-05-10T02:38:36;0.40;;;0.30;;
4547;SDS011;2286;51.570;7.090;2023-05-10T02:41:03;0.73;;;0.73;;
4547;SDS011;2286;51.570;7.090;2023-05-10T02:43:32;0.40;;;0.40;;
4547;SDS011;2286;51.570;7.090;2023-05-10T02:46:01;0.73;;;0.73;;
4547;SDS011;2286;51.570;7.090;2023-05-10T02:48:28;10.43;;;1.03;;
4547;SDS011;2286;51.570;7.090;2023-05-10T02:50:56;0.40;;;0.30;;
4547;SDS011;2286;51.570;7.090;2023-05-10T02:53:31;5.80;;;0.77;;
4547;SDS011;2286;51.570;7.090;2023-05-10T02:56:05;1.27;;;1.23;;
4547;SDS011;2286;51.570;7.090;2023-05-10T02:58:37;0.40;;;0.30;;
4547;SDS011;2286;51.570;7.090;2023-05-10T03:01:04;1.03;;;1.03;;
4547;SDS011;2286;51.570;7.090;2023-05-10T03:03:32;0.50;;;0.50;;
4547;SDS011;2286;51.570;7.090;2023-05-10T03:05:59;0.83;;;0.83;;
4547;SDS011;2286;51.570;7.090;2023-05-10T03:08:26;1.03;;;1.03;;
4547;SDS011;2286;51.570;7.090;2023-05-10T03:10:55;0.40;;;0.40;;
4547;SDS011;2286;51.570;7.090;2023-05-10T03:13:36;0.40;;;0.40;;
4547;SDS011;2286;51.570;7.090;2023-05-10T03:16:10;0.77;;;0.77;;
4547;SDS011;2286;51.570;7.090;2023-05-10T03:18:42;0.40;;;0.30;;
4547;SDS011;2286;51.570;7.090;2023-05-10T03:21:12;0.40;;;0.40;;
4547;SDS011;2286;51.570;7.090;2023-05-10T03:23:45;0.67;;;0.50;;
4547;SDS011;2286;51.570;7.090;2023-05-10T03:26:17;2.63;;;2.00;;
4547;SDS011;2286;51.570;7.090;2023-05-10T03:28:46;1.50;;;1.40;;
4547;SDS011;2286;51.570;7.090;2023-05-10T03:31:14;1.17;;;0.93;;
4547;SDS011;2286;51.570;7.090;2023-05-10T03:33:45;0.70;;;0.70;;
4547;SDS011;2286;51.570;7.090;2023-05-10T03:36:13;0.40;;;0.40;;
4547;SDS011;2286;51.570;7.090;2023-05-10T03:38:40;1.03;;;1.03;;
4547;SDS011;2286;51.570;7.090;2023-05-10T03:41:07;1.00;;;1.00;;
4547;SDS011;2286;51.570;7.090;2023-05-10T03:43:35;4.53;;;2.30;;
4547;SDS011;2286;51.570;7.090;2023-05-10T03:46:02;0.80;;;0.80;;
4547;SDS011;2286;51.570;7.090;2023-05-10T03:48:29;1.63;;;1.57;;
4547;SDS011;2286;51.570;7.090;2023-05-10T03:50:56;0.90;;;0.90;;
4547;SDS011;2286;51.570;7.090;2023-05-10T03:53:23;0.50;;;0.50;;
4547;SDS011;2286;51.570;7.090;2023-05-10T03:55:50;1.80;;;1.70;;
4547;SDS011;2286;51.570;7.090;2023-05-10T03:58:17;0.40;;;0.40;;
4547;SDS011;2286;51.570;7.090;2023-05-10T04:00:45;0.50;;;0.50;;
4547;SDS011;2286;51.570;7.090;2023-05-10T04:03:12;0.70;;;0.70;;
4547;SDS011;2286;51.570;7.090;2023-05-10T04:05:40;0.90;;;0.90;;
4547;SDS011;2286;51.570;7.090;2023-05-10T04:08:07;0.57;;;0.57;;
4547;SDS011;2286;51.570;7.090;2023-05-10T04:10:33;1.77;;;1.63;;
4547;SDS011;2286;51.570;7.090;2023-05-10T04:13:00;1.43;;;0.83;;
4547;SDS011;2286;51.570;7.090;2023-05-10T04:15:27;1.37;;;1.37;;
4547;SDS011;2286;51.570;7.090;2023-05-10T04:17:56;0.60;;;0.60;;
4547;SDS011;2286;51.570;7.090;2023-05-10T04:20:22;0.70;;;0.70;;
4547;SDS011;2286;51.570;7.090;2023-05-10T04:22:49;2.73;;;2.30;;
4547;SDS011;2286;51.570;7.090;2023-05-10T04:25:16;1.20;;;1.10;;
4547;SDS011;2286;51.570;7.090;2023-05-10T04:27:43;1.00;;;1.00;;
4547;SDS011;2286;51.570;7.090;2023-05-10T04:30:10;3.33;;;2.20;;
4547;SDS011;2286;51.570;7.090;2023-05-10T04:32:37;2.00;;;1.50;;
4547;SDS011;2286;51.570;7.090;2023-05-10T04:35:06;1.27;;;1.17;;
4547;SDS011;2286;51.570;7.090;2023-05-10T04:37:35;4.13;;;2.00;;
4547;SDS011;2286;51.570;7.090;2023-05-10T04:40:02;1.07;;;1.07;;
4547;SDS011;2286;51.570;7.090;2023-05-10T04:42:29;1.00;;;0.60;;
4547;SDS011;2286;51.570;7.090;2023-05-10T04:44:56;1.00;;;1.00;;
4547;SDS011;2286;51.570;7.090;2023-05-10T04:47:23;1.67;;;1.47;;
4547;SDS011;2286;51.570;7.090;2023-05-10T04:49:50;2.23;;;1.80;;
4547;SDS011;2286;51.570;7.090;2023-05-10T04:52:18;12.50;;;3.73;;
4547;SDS011;2286;51.570;7.090;2023-05-10T04:54:45;1.63;;;1.53;;
4547;SDS011;2286;51.570;7.090;2023-05-10T04:57:12;0.90;;;0.83;;
4547;SDS011;2286;51.570;7.090;2023-05-10T04:59:39;1.10;;;1.10;;
4547;SDS011;2286;51.570;7.090;2023-05-10T05:02:05;2.23;;;2.10;;
4547;SDS011;2286;51.570;7.090;2023-05-10T05:04:32;3.43;;;2.00;;
4547;SDS011;2286;51.570;7.090;2023-05-10T05:06:59;0.63;;;0.63;;
4547;SDS011;2286;51.570;7.090;2023-05-10T05:09:27;2.67;;;2.10;;
4547;SDS011;2286;51.570;7.090;2023-05-10T05:11:54;2.33;;;2.23;;
4547;SDS011;2286;51.570;7.090;2023-05-10T05:14:21;1.00;;;0.97;;
4547;SDS011;2286;51.570;7.090;2023-05-10T05:16:50;0.50;;;0.50;;
4547;SDS011;2286;51.570;7.090;2023-05-10T05:19:17;6.00;;;3.60;;
4547;SDS011;2286;51.570;7.090;2023-05-10T05:21:44;0.83;;;0.83;;
4547;SDS011;2286;51.570;7.090;2023-05-10T05:24:10;2.17;;;2.00;;
4547;SDS011;2286;51.570;7.090;2023-05-10T05:26:39;2.77;;;1.23;;
4547;SDS011;2286;51.570;7.090;2023-05-10T05:29:06;0.80;;;0.80;;
4547;SDS011;2286;51.570;7.090;2023-05-10T05:31:33;0.80;;;0.80;;
4547;SDS011;2286;51.570;7.090;2023-05-10T05:34:00;0.80;;;0.80;;
4547;SDS011;2286;51.570;7.090;2023-05-10T05:36:27;1.23;;;1.13;;
4547;SDS011;2286;51.570;7.090;2023-05-10T05:38:54;0.90;;;0.90;;
4547;SDS011;2286;51.570;7.090;2023-05-10T05:41:21;2.83;;;2.63;;
4547;SDS011;2286;51.570;7.090;2023-05-10T05:43:50;0.70;;;0.70;;
4547;SDS011;2286;51.570;7.090;2023-05-10T05:46:17;2.03;;;1.93;;
4547;SDS011;2286;51.570;7.090;2023-05-10T05:48:44;6.20;;;4.27;;
4547;SDS011;2286;51.570;7.090;2023-05-10T05:51:10;1.03;;;1.03;;
4547;SDS011;2286;51.570;7.090;2023-05-10T05:53:37;1.27;;;0.93;;
4547;SDS011;2286;51.570;7.090;2023-05-10T05:56:04;0.87;;;0.87;;
4547;SDS011;2286;51.570;7.090;2023-05-10T05:58:32;0.67;;;0.67;;
4547;SDS011;2286;51.570;7.090;2023-05-10T06:01:01;1.33;;;1.03;;
4547;SDS011;2286;51.570;7.090;2023-05-10T06:03:28;2.83;;;1.30;;
4547;SDS011;2286;51.570;7.090;2023-05-10T06:05:55;1.17;;;1.07;;
4547;SDS011;2286;51.570;7.090;2023-05-10T06:08:21;1.13;;;1.13;;
4547;SDS011;2286;51.570;7.090;2023-05-10T06:10:48;1.83;;;1.73;;
4547;SDS011;2286;51.570;7.090;2023-05-10T06:13:15;1.67;;;1.10;;
4547;SDS011;2286;51.570;7.090;2023-05-10T06:15:42;2.83;;;1.10;;
4547;SDS011;2286;51.570;7.090;2023-05-10T06:18:10;9.17;;;2.50;;
4547;SDS011;2286;51.570;7.090;2023-05-10T06:20:37;0.50;;;0.50;;
4547;SDS011;2286;51.570;7.090;2023-05-10T06:23:04;2.73;;;2.50;;
4547;SDS011;2286;51.570;7.090;2023-05-10T06:25:31;10.90;;;4.37;;
4547;SDS011;2286;51.570;7.090;2023-05-10T06:27:58;4.40;;;3.57;;
4547;SDS011;2286;51.570;7.090;2023-05-10T06:30:25;5.93;;;2.20;;
4547;SDS011;2286;51.570;7.090;2023-05-10T06:32:53;2.50;;;2.40;;
4547;SDS011;2286;51.570;7.090;2023-05-10T06:35:21;3.30;;;3.07;;
4547;SDS011;2286;51.570;7.090;2023-05-10T06:37:49;1.43;;;1.33;;
4547;SDS011;2286;51.570;7.090;2023-05-10T06:40:16;2.07;;;1.90;;
4547;SDS011;2286;51.570;7.090;2023-05-10T06:42:43;1.23;;;1.23;;
4547;SDS011;2286;51.570;7.090;2023-05-10T06:45:11;1.63;;;1.60;;
4547;SDS011;2286;51.570;7.090;2023-05-10T06:47:39;0.87;;;0.87;;
4547;SDS011;2286;51.570;7.090;2023-05-10T06:50:06;1.67;;;1.57;;
4547;SDS011;2286;51.570;7.090;2023-05-10T06:52:35;1.50;;;1.40;;
4547;SDS011;2286;51.570;7.090;2023-05-10T06:55:03;2.40;;;1.90;;
4547;SDS011;2286;51.570;7.090;2023-05-10T06:57:30;10.80;;;2.40;;
4547;SDS011;2286;51.570;7.090;2023-05-10T06:59:57;3.80;;;2.80;;
4547;SDS011;2286;51.570;7.090;2023-05-10T07:02:24;8.50;;;2.70;;
4547;SDS011;2286;51.570;7.090;2023-05-10T07:04:51;6.90;;;2.33;;
4547;SDS011;2286;51.570;7.090;2023-05-10T07:07:18;11.83;;;3.50;;
4547;SDS011;2286;51.570;7.090;2023-05-10T07:09:47;1.93;;;1.83;;
4547;SDS011;2286;51.570;7.090;2023-05-10T07:12:15;1.23;;;1.13;;
4547;SDS011;2286;51.570;7.090;2023-05-10T07:14:41;1.70;;;1.60;;
4547;SDS011;2286;51.570;7.090;2023-05-10T07:17:09;3.70;;;1.47;;
4547;SDS011;2286;51.570;7.090;2023-05-10T07:19:36;1.77;;;1.67;;
4547;SDS011;2286;51.570;7.090;2023-05-10T07:22:02;0.70;;;0.70;;
4547;SDS011;2286;51.570;7.090;2023-05-10T07:24:29;9.03;;;1.83;;
4547;SDS011;2286;51.570;7.090;2023-05-10T07:26:58;0.80;;;0.80;;
4547;SDS011;2286;51.570;7.090;2023-05-10T07:29:25;2.27;;;2.10;;
4547;SDS011;2286;51.570;7.090;2023-05-10T07:31:52;2.53;;;2.43;;
4547;SDS011;2286;51.570;7.090;2023-05-10T07:34:18;1.23;;;1.23;;
4547;SDS011;2286;51.570;7.090;2023-05-10T07:36:45;1.87;;;1.83;;
4547;SDS011;2286;51.570;7.090;2023-05-10T07:39:12;0.87;;;0.87;;
4547;SDS011;2286;51.570;7.090;2023-05-10T07:41:39;3.33;;;3.13;;
4547;SDS011;2286;51.570;7.090;2023-05-10T07:44:07;3.63;;;3.33;;
4547;SDS011;2286;51.570;7.090;2023-05-10T07:46:34;46.83;;;36.93;;
4547;SDS011;2286;51.570;7.090;2023-05-10T07:49:01;44.67;;;37.50;;
4547;SDS011;2286;51.570;7.090;2023-05-10T07:51:28;47.00;;;36.87;;
4547;SDS011;2286;51.570;7.090;2023-05-10T07:53:55;38.73;;;33.57;;
4547;SDS011;2286;51.570;7.090;2023-05-10T07:56:23;40.33;;;32.90;;
4547;SDS011;2286;51.570;7.090;2023-05-10T07:58:52;40.67;;;32.50;;
4547;SDS011;2286;51.570;7.090;2023-05-10T08:01:20;38.43;;;32.63;;
4547;SDS011;2286;51.570;7.090;2023-05-10T08:03:47;40.40;;;33.83;;
4547;SDS011;2286;51.570;7.090;2023-05-10T08:06:16;37.83;;;33.80;;
4547;SDS011;2286;51.570;7.090;2023-05-10T08:08:43;33.53;;;29.93;;
4547;SDS011;2286;51.570;7.090;2023-05-10T08:11:14;34.33;;;28.90;;
4547;SDS011;2286;51.570;7.090;2023-05-10T08:13:41;32.23;;;28.90;;
4547;SDS011;2286;51.570;7.090;2023-05-10T08:16:08;31.03;;;27.80;;
4547;SDS011;2286;51.570;7.090;2023-05-10T08:18:36;33.43;;;29.10;;
4547;SDS011;2286;51.570;7.090;2023-05-10T08:21:03;40.67;;;35.10;;
4547;SDS011;2286;51.570;7.090;2023-05-10T08:23:30;46.50;;;39.13;;
4547;SDS011;2286;51.570;7.090;2023-05-10T08:25:57;42.50;;;37.87;;
4547;SDS011;2286;51.570;7.090;2023-05-10T08:28:24;47.20;;;39.83;;
4547;SDS011;2286;51.570;7.090;2023-05-10T08:30:51;49.10;;;40.97;;
4547;SDS011;2286;51.570;7.090;2023-05-10T08:33:18;41.47;;;37.00;;
4547;SDS011;2286;51.570;7.090;2023-05-10T08:35:46;39.90;;;35.10;;
4547;SDS011;2286;51.570;7.090;2023-05-10T08:38:13;42.00;;;33.27;;
4547;SDS011;2286;51.570;7.090;2023-05-10T08:40:41;39.77;;;34.40;;
4547;SDS011;2286;51.570;7.090;2023-05-10T08:43:09;35.43;;;31.10;;
4547;SDS011;2286;51.570;7.090;2023-05-10T08:45:38;35.43;;;31.83;;
4547;SDS011;2286;51.570;7.090;2023-05-10T08:48:07;38.60;;;33.60;;
4547;SDS011;2286;51.570;7.090;2023-05-10T08:50:35;34.57;;;30.83;;
4547;SDS011;2286;51.570;7.090;2023-05-10T08:53:05;38.13;;;32.20;;
4547;SDS011;2286;51.570;7.090;2023-05-10T08:55:35;34.93;;;30.60;;
4547;SDS011;2286;51.570;7.090;2023-05-10T08:58:03;34.20;;;29.63;;
4547;SDS011;2286;51.570;7.090;2023-05-10T09:00:30;30.83;;;27.33;;
4547;SDS011;2286;51.570;7.090;2023-05-10T09:02:58;28.73;;;25.63;;
4547;SDS011;2286;51.570;7.090;2023-05-10T09:05:25;24.60;;;22.10;;
4547;SDS011;2286;51.570;7.090;2023-05-10T09:07:52;27.67;;;22.23;;
4547;SDS011;2286;51.570;7.090;2023-05-10T09:10:21;25.67;;;22.90;;
4547;SDS011;2286;51.570;7.090;2023-05-10T09:12:51;26.83;;;23.93;;
4547;SDS011;2286;51.570;7.090;2023-05-10T09:15:19;26.73;;;23.90;;
4547;SDS011;2286;51.570;7.090;2023-05-10T09:17:46;30.97;;;26.30;;
4547;SDS011;2286;51.570;7.090;2023-05-10T09:20:15;27.33;;;23.70;;
4547;SDS011;2286;51.570;7.090;2023-05-10T09:22:43;28.30;;;25.50;;
4547;SDS011;2286;51.570;7.090;2023-05-10T09:25:11;25.80;;;22.87;;
4547;SDS011;2286;51.570;7.090;2023-05-10T09:27:40;27.90;;;23.53;;
4547;SDS011;2286;51.570;7.090;2023-05-10T09:30:10;27.80;;;24.97;;
4547;SDS011;2286;51.570;7.090;2023-05-10T09:32:42;27.23;;;24.40;;
4547;SDS011;2286;51.570;7.090;2023-05-10T09:35:10;25.13;;;22.57;;
4547;SDS011;2286;51.570;7.090;2023-05-10T09:37:39;27.30;;;21.30;;
4547;SDS011;2286;51.570;7.090;2023-05-10T09:40:08;23.10;;;20.70;;
4547;SDS011;2286;51.570;7.090;2023-05-10T09:42:39;25.97;;;22.70;;
4547;SDS011;2286;51.570;7.090;2023-05-10T09:45:16;26.20;;;22.63;;
4547;SDS011;2286;51.570;7.090;2023-05-10T09:47:43;25.53;;;21.27;;
4547;SDS011;2286;51.570;7.090;2023-05-10T09:50:10;23.27;;;20.17;;
4547;SDS011;2286;51.570;7.090;2023-05-10T09:52:45;28.40;;;20.10;;
4547;SDS011;2286;51.570;7.090;2023-05-10T09:55:13;25.07;;;20.47;;
4547;SDS011;2286;51.570;7.090;2023-05-10T09:57:41;21.93;;;18.93;;
4547;SDS011;2286;51.570;7.090;2023-05-10T10:00:09;19.43;;;17.30;;
4547;SDS011;2286;51.570;7.090;2023-05-10T10:02:37;22.33;;;19.07;;
4547;SDS011;2286;51.570;7.090;2023-05-10T10:05:06;27.50;;;21.20;;
4547;SDS011;2286;51.570;7.090;2023-05-10T10:07:33;25.67;;;21.27;;
4547;SDS011;2286;51.570;7.090;2023-05-10T10:10:01;24.73;;;21.43;;
4547;SDS011;2286;51.570;7.090;2023-05-10T10:12:29;23.50;;;21.10;;
4547;SDS011;2286;51.570;7.090;2023-05-10T10:14:58;23.40;;;20.97;;
4547;SDS011;2286;51.570;7.090;2023-05-10T10:17:26;23.60;;;21.10;;
4547;SDS011;2286;51.570;7.090;2023-05-10T10:19:54;23.67;;;21.17;;
4547;SDS011;2286;51.570;7.090;2023-05-10T10:22:23;23.90;;;21.40;;
4547;SDS011;2286;51.570;7.090;2023-05-10T10:24:50;31.10;;;23.63;;
4547;SDS011;2286;51.570;7.090;2023-05-10T10:27:20;27.10;;;20.77;;
4547;SDS011;2286;51.570;7.090;2023-05-10T10:30:00;20.73;;;18.13;;
4547;SDS011;2286;51.570;7.090;2023-05-10T10:32:35;21.07;;;18.27;;
4547;SDS011;2286;51.570;7.090;2023-05-10T10:35:10;19.03;;;17.13;;
4547;SDS011;2286;51.570;7.090;2023-05-10T10:37:41;17.67;;;15.80;;
4547;SDS011;2286;51.570;7.090;2023-05-10T10:40:23;17.23;;;15.50;;
4547;SDS011;2286;51.570;7.090;2023-05-10T10:42:51;19.07;;;17.07;;
4547;SDS011;2286;51.570;7.090;2023-05-10T10:45:20;17.83;;;15.53;;
4547;SDS011;2286;51.570;7.090;2023-05-10T10:47:48;17.27;;;15.47;;
4547;SDS011;2286;51.570;7.090;2023-05-10T10:50:16;16.60;;;14.90;;
4547;SDS011;2286;51.570;7.090;2023-05-10T10:52:44;17.00;;;15.30;;
4547;SDS011;2286;51.570;7.090;2023-05-10T10:55:11;19.00;;;16.97;;
4547;SDS011;2286;51.570;7.090;2023-05-10T10:57:43;22.93;;;20.57;;
4547;SDS011;2286;51.570;7.090;2023-05-10T11:00:21;23.97;;;21.57;;
4547;SDS011;2286;51.570;7.090;2023-05-10T11:02:51;22.70;;;20.60;;
4547;SDS011;2286;51.570;7.090;2023-05-10T11:08:13;19.67;;;17.60;;
4547;SDS011;2286;51.570;7.090;2023-05-10T11:13:39;20.50;;;16.43;;
4547;SDS011;2286;51.570;7.090;2023-05-10T11:16:16;17.80;;;14.97;;
4547;SDS011;2286;51.570;7.090;2023-05-10T11:18:56;18.13;;;16.23;;
4547;SDS011;2286;51.570;7.090;2023-05-10T11:21:26;17.97;;;15.00;;
4547;SDS011;2286;51.570;7.090;2023-05-10T11:23:53;15.13;;;13.73;;
4547;SDS011;2286;51.570;7.090;2023-05-10T11:26:22;15.10;;;13.60;;
4547;SDS011;2286;51.570;7.090;2023-05-10T11:28:51;16.03;;;14.37;;
4547;SDS011;2286;51.570;7.090;2023-05-10T11:31:21;14.80;;;13.33;;
4547;SDS011;2286;51.570;7.090;2023-05-10T11:33:49;15.10;;;13.53;;
4547;SDS011;2286;51.570;7.090;2023-05-10T11:36:17;12.77;;;11.57;;
4547;SDS011;2286;51.570;7.090;2023-05-10T11:38:46;13.63;;;12.33;;
4547;SDS011;2286;51.570;7.090;2023-05-10T11:41:15;15.13;;;12.73;;
4547;SDS011;2286;51.570;7.090;2023-05-10T11:43:43;13.87;;;12.40;;
4547;SDS011;2286;51.570;7.090;2023-05-10T11:46:13;13.70;;;12.40;;
4547;SDS011;2286;51.570;7.090;2023-05-10T11:48:42;13.00;;;11.80;;
4547;SDS011;2286;51.570;7.090;2023-05-10T11:51:10;13.80;;;12.43;;
4547;SDS011;2286;51.570;7.090;2023-05-10T11:53:37;13.40;;;12.20;;
4547;SDS011;2286;51.570;7.090;2023-05-10T11:56:04;13.17;;;11.77;;
4547;SDS011;2286;51.570;7.090;2023-05-10T11:58:32;14.90;;;13.37;;
4547;SDS011;2286;51.570;7.090;2023-05-10T12:00:59;14.37;;;12.00;;
4547;SDS011;2286;51.570;7.090;2023-05-10T12:03:27;16.83;;;14.80;;
4547;SDS011;2286;51.570;7.090;2023-05-10T12:05:56;13.97;;;12.67;;
4547;SDS011;2286;51.570;7.090;2023-05-10T12:08:25;15.00;;;13.60;;
4547;SDS011;2286;51.570;7.090;2023-05-10T12:10:53;13.60;;;12.40;;
4547;SDS011;2286;51.570;7.090;2023-05-10T12:13:29;16.43;;;14.03;;
4547;SDS011;2286;51.570;7.090;2023-05-10T12:15:57;14.77;;;13.37;;
4547;SDS011;2286;51.570;7.090;2023-05-10T12:18:24;14.83;;;13.30;;
4547;SDS011;2286;51.570;7.090;2023-05-10T12:20:51;14.23;;;12.77;;
4547;SDS011;2286;51.570;7.090;2023-05-10T12:23:21;13.53;;;12.17;;
4547;SDS011;2286;51.570;7.090;2023-05-10T12:25:48;16.37;;;14.47;;
4547;SDS011;2286;51.570;7.090;2023-05-10T12:28:18;15.80;;;13.43;;
4547;SDS011;2286;51.570;7.090;2023-05-10T12:30:45;15.63;;;14.10;;
4547;SDS011;2286;51.570;7.090;2023-05-10T12:33:13;16.93;;;15.20;;
4547;SDS011;2286;51.570;7.090;2023-05-10T12:35:45;16.63;;;14.80;;
4547;SDS011;2286;51.570;7.090;2023-05-10T12:38:27;15.83;;;14.23;;
4547;SDS011;2286;51.570;7.090;2023-05-10T12:40:58;17.10;;;15.30;;
4547;SDS011;2286;51.570;7.090;2023-05-10T12:43:26;17.60;;;15.90;;
4547;SDS011;2286;51.570;7.090;2023-05-10T12:45:53;18.03;;;16.40;;
4547;SDS011;2286;51.570;7.090;2023-05-10T12:48:20;19.17;;;17.27;;
4547;SDS011;2286;51.570;7.090;2023-05-10T12:50:47;17.50;;;15.90;;
4547;SDS011;2286;51.570;7.090;2023-05-10T12:53:14;17.20;;;15.40;;
4547;SDS011;2286;51.570;7.090;2023-05-10T12:55:42;18.33;;;16.50;;
4547;SDS011;2286;51.570;7.090;2023-05-10T12:58:09;19.00;;;17.20;;
4547;SDS011;2286;51.570;7.090;2023-05-10T13:00:37;19.17;;;17.20;;
4547;SDS011;2286;51.570;7.090;2023-05-10T13:03:03;18.80;;;17.20;;
4547;SDS011;2286;51.570;7.090;2023-05-10T13:05:31;19.07;;;16.93;;
4547;SDS011;2286;51.570;7.090;2023-05-10T13:07:58;21.10;;;15.63;;
4547;SDS011;2286;51.570;7.090;2023-05-10T13:10:25;19.63;;;16.70;;
4547;SDS011;2286;51.570;7.090;2023-05-10T13:12:53;16.80;;;14.90;;
4547;SDS011;2286;51.570;7.090;2023-05-10T13:15:20;12.97;;;11.67;;
4547;SDS011;2286;51.570;7.090;2023-05-10T13:17:47;12.37;;;11.23;;
4547;SDS011;2286;51.570;7.090;2023-05-10T13:20:14;12.63;;;11.27;;
4547;SDS011;2286;51.570;7.090;2023-05-10T13:22:42;12.07;;;10.17;;
4547;SDS011;2286;51.570;7.090;2023-05-10T13:25:10;11.63;;;10.37;;
4547;SDS011;2286;51.570;7.090;2023-05-10T13:27:38;9.67;;;8.80;;
4547;SDS011;2286;51.570;7.090;2023-05-10T13:30:07;10.13;;;9.27;;
4547;SDS011;2286;51.570;7.090;2023-05-10T13:32:36;9.70;;;8.03;;
4547;SDS011;2286;51.570;7.090;2023-05-10T13:35:04;9.83;;;8.63;;
4547;SDS011;2286;51.570;7.090;2023-05-10T13:37:32;8.00;;;7.20;;
4547;SDS011;2286;51.570;7.090;2023-05-10T13:40:00;8.13;;;7.33;;
4547;SDS011;2286;51.570;7.090;2023-05-10T13:42:27;8.93;;;7.43;;
4547;SDS011;2286;51.570;7.090;2023-05-10T13:44:54;8.50;;;6.20;;
4547;SDS011;2286;51.570;7.090;2023-05-10T13:47:22;7.63;;;6.70;;
4547;SDS011;2286;51.570;7.090;2023-05-10T13:49:49;7.80;;;6.30;;
4547;SDS011;2286;51.570;7.090;2023-05-10T13:52:16;6.67;;;6.10;;
4547;SDS011;2286;51.570;7.090;2023-05-10T13:54:43;6.70;;;6.10;;
4547;SDS011;2286;51.570;7.090;2023-05-10T13:57:10;7.13;;;6.53;;
4547;SDS011;2286;51.570;7.090;2023-05-10T13:59:38;6.03;;;5.50;;
4547;SDS011;2286;51.570;7.090;2023-05-10T14:02:05;7.53;;;6.50;;
4547;SDS011;2286;51.570;7.090;2023-05-10T14:04:34;6.90;;;6.20;;
4547;SDS011;2286;51.570;7.090;2023-05-10T14:07:01;7.57;;;6.27;;
4547;SDS011;2286;51.570;7.090;2023-05-10T14:09:28;6.70;;;6.13;;
4547;SDS011;2286;51.570;7.090;2023-05-10T14:11:55;6.53;;;5.93;;
4547;SDS011;2286;51.570;7.090;2023-05-10T14:14:22;6.10;;;5.50;;
4547;SDS011;2286;51.570;7.090;2023-05-10T14:16:49;5.27;;;4.80;;
4547;SDS011;2286;51.570;7.090;2023-05-10T14:19:16;5.70;;;5.30;;
4547;SDS011;2286;51.570;7.090;2023-05-10T14:21:45;6.77;;;6.17;;
4547;SDS011;2286;51.570;7.090;2023-05-10T14:24:12;5.50;;;5.00;;
4547;SDS011;2286;51.570;7.090;2023-05-10T14:26:39;6.23;;;5.13;;
4547;SDS011;2286;51.570;7.090;2023-05-10T14:29:06;5.47;;;5.07;;
4547;SDS011;2286;51.570;7.090;2023-05-10T14:31:32;5.90;;;5.50;;
4547;SDS011;2286;51.570;7.090;2023-05-10T14:34:00;5.43;;;4.90;;
4547;SDS011;2286;51.570;7.090;2023-05-10T14:36:27;5.83;;;5.00;;
4547;SDS011;2286;51.570;7.090;2023-05-10T14:38:56;4.70;;;4.30;;
4547;SDS011;2286;51.570;7.090;2023-05-10T14:41:23;6.13;;;5.23;;
4547;SDS011;2286;51.570;7.090;2023-05-10T14:43:50;6.40;;;5.90;;
4547;SDS011;2286;51.570;7.090;2023-05-10T14:46:17;6.70;;;6.10;;
4547;SDS011;2286;51.570;7.090;2023-05-10T14:48:44;7.07;;;6.30;;
4547;SDS011;2286;51.570;7.090;2023-05-10T14:51:11;5.83;;;5.43;;
4547;SDS011;2286;51.570;7.090;2023-05-10T14:53:38;8.10;;;7.40;;
4547;SDS011;2286;51.570;7.090;2023-05-10T14:56:06;7.20;;;6.70;;
4547;SDS011;2286;51.570;7.090;2023-05-10T14:58:33;6.93;;;6.33;;
4547;SDS011;2286;51.570;7.090;2023-05-10T15:01:00;7.00;;;6.30;;
4547;SDS011;2286;51.570;7.090;2023-05-10T15:03:27;6.10;;;5.37;;
4547;SDS011;2286;51.570;7.090;2023-05-10T15:05:54;7.90;;;7.20;;
4547;SDS011;2286;51.570;7.090;2023-05-10T15:08:22;7.07;;;6.40;;
4547;SDS011;2286;51.570;7.090;2023-05-10T15:10:49;7.17;;;5.90;;
4547;SDS011;2286;51.570;7.090;2023-05-10T15:13:18;6.73;;;6.13;;
4547;SDS011;2286;51.570;7.090;2023-05-10T15:15:45;7.67;;;7.07;;
4547;SDS011;2286;51.570;7.090;2023-05-10T15:18:12;9.43;;;7.37;;